sensor_id;sensor_type;location;lat;lon;timestamp;P1;durP1;ratioP1;P2;durP2;ratioP2
2858;SDS011;1437;53.250;10.406;2022-08-25T00:01:11;9.10;;;3.77;;
2858;SDS011;1437;53.250;10.406;2022-08-25T00:03:39;6.00;;;4.00;;
2858;SDS011;1437;53.250;10.406;2022-08-25T00:06:06;7.17;;;3.80;;
2858;SDS011;1437;53.250;10.406;2022-08-25T00:08:34;6.40;;;3.93;;
2858;SDS011;1437;53.250;10.406;2022-08-25T00:11:02;8.67;;;3.67;;
2858;SDS011;1437;53.250;10.406;2022-08-25T00:13:30;4.83;;;3.43;;
2858;SDS011;1437;53.250;10.406;2022-08-25T00:15:58;5.43;;;4.00;;
2858;SDS011;1437;53.250;10.406;2022-08-25T00:18:25;6.10;;;4.20;;
2858;SDS011;1437;53.250;10.406;2022-08-25T00:20:53;10.53;;;4.13;;
2858;SDS011;1437;53.250;10.406;2022-08-25T00:23:20;7.03;;;5.50;;
2858;SDS011;1437;53.250;10.406;2022-08-25T00:25:47;5.90;;;3.83;;
2858;SDS011;1437;53.250;10.406;2022-08-25T00:28:15;7.13;;;3.83;;
2858;SDS011;1437;53.250;10.406;2022-08-25T00:30:43;6.90;;;4.23;;
2858;SDS011;1437;53.250;10.406;2022-08-25T00:33:10;4.80;;;3.40;;
2858;SDS011;1437;53.250;10.406;2022-08-25T00:35:39;4.53;;;3.43;;
2858;SDS011;1437;53.250;10.406;2022-08-25T00:38:06;5.83;;;4.00;;
2858;SDS011;1437;53.250;10.406;2022-08-25T00:40:33;5.27;;;4.30;;
2858;SDS011;1437;53.250;10.406;2022-08-25T00:43:00;5.67;;;4.20;;
2858;SDS011;1437;53.250;10.406;2022-08-25T00:45:33;6.73;;;4.17;;
2858;SDS011;1437;53.250;10.406;2022-08-25T00:48:01;7.07;;;4.20;;
2858;SDS011;1437;53.250;10.406;2022-08-25T00:50:28;5.10;;;3.90;;
2858;SDS011;1437;53.250;10.406;2022-08-25T00:52:56;5.50;;;4.57;;
2858;SDS011;1437;53.250;10.406;2022-08-25T00:55:26;5.53;;;3.63;;
2858;SDS011;1437;53.250;10.406;2022-08-25T00:57:55;8.83;;;3.90;;
2858;SDS011;1437;53.250;10.406;2022-08-25T01:00:24;6.97;;;4.20;;
2858;SDS011;1437;53.250;10.406;2022-08-25T01:02:51;6.90;;;4.13;;
2858;SDS011;1437;53.250;10.406;2022-08-25T01:05:21;12.10;;;4.73;;
2858;SDS011;1437;53.250;10.406;2022-08-25T01:07:49;6.03;;;4.60;;
2858;SDS011;1437;53.250;10.406;2022-08-25T01:10:17;6.00;;;4.30;;
2858;SDS011;1437;53.250;10.406;2022-08-25T01:12:44;7.73;;;3.80;;
2858;SDS011;1437;53.250;10.406;2022-08-25T01:15:12;8.17;;;4.20;;
2858;SDS011;1437;53.250;10.406;2022-08-25T01:17:44;6.77;;;4.73;;
2858;SDS011;1437;53.250;10.406;2022-08-25T01:20:12;6.47;;;3.77;;
2858;SDS011;1437;53.250;10.406;2022-08-25T01:22:40;7.73;;;4.40;;
2858;SDS011;1437;53.250;10.406;2022-08-25T01:25:10;6.53;;;4.80;;
2858;SDS011;1437;53.250;10.406;2022-08-25T01:27:42;5.30;;;4.40;;
2858;SDS011;1437;53.250;10.406;2022-08-25T01:30:10;5.60;;;3.87;;
2858;SDS011;1437;53.250;10.406;2022-08-25T01:32:37;7.60;;;4.43;;
2858;SDS011;1437;53.250;10.406;2022-08-25T01:35:04;5.27;;;4.33;;
2858;SDS011;1437;53.250;10.406;2022-08-25T01:37:35;7.50;;;4.53;;
2858;SDS011;1437;53.250;10.406;2022-08-25T01:40:03;8.53;;;4.27;;
2858;SDS011;1437;53.250;10.406;2022-08-25T01:42:37;5.03;;;4.10;;
2858;SDS011;1437;53.250;10.406;2022-08-25T01:45:08;6.80;;;4.10;;
2858;SDS011;1437;53.250;10.406;2022-08-25T01:47:35;5.43;;;4.53;;
2858;SDS011;1437;53.250;10.406;2022-08-25T01:50:03;6.47;;;4.17;;
2858;SDS011;1437;53.250;10.406;2022-08-25T01:52:31;7.43;;;4.57;;
2858;SDS011;1437;53.250;10.406;2022-08-25T01:54:59;9.77;;;4.30;;
2858;SDS011;1437;53.250;10.406;2022-08-25T01:57:28;4.77;;;4.30;;
2858;SDS011;1437;53.250;10.406;2022-08-25T01:59:56;6.13;;;4.07;;
2858;SDS011;1437;53.250;10.406;2022-08-25T02:02:23;4.83;;;4.20;;
2858;SDS011;1437;53.250;10.406;2022-08-25T02:04:50;6.67;;;4.97;;
2858;SDS011;1437;53.250;10.406;2022-08-25T02:07:17;4.97;;;4.23;;
2858;SDS011;1437;53.250;10.406;2022-08-25T02:09:45;5.57;;;4.23;;
2858;SDS011;1437;53.250;10.406;2022-08-25T02:12:12;6.20;;;4.50;;
2858;SDS011;1437;53.250;10.406;2022-08-25T02:14:40;4.90;;;3.57;;
2858;SDS011;1437;53.250;10.406;2022-08-25T02:17:08;5.83;;;4.27;;
2858;SDS011;1437;53.250;10.406;2022-08-25T02:19:36;5.97;;;4.17;;
2858;SDS011;1437;53.250;10.406;2022-08-25T02:22:03;5.70;;;4.40;;
2858;SDS011;1437;53.250;10.406;2022-08-25T02:24:30;6.07;;;4.30;;
2858;SDS011;1437;53.250;10.406;2022-08-25T02:26:59;6.17;;;4.07;;
2858;SDS011;1437;53.250;10.406;2022-08-25T02:29:28;8.80;;;4.47;;
2858;SDS011;1437;53.250;10.406;2022-08-25T02:31:59;5.97;;;4.90;;
2858;SDS011;1437;53.250;10.406;2022-08-25T02:34:28;10.07;;;4.77;;
2858;SDS011;1437;53.250;10.406;2022-08-25T02:36:55;6.57;;;4.80;;
2858;SDS011;1437;53.250;10.406;2022-08-25T02:39:22;5.83;;;4.37;;
2858;SDS011;1437;53.250;10.406;2022-08-25T02:41:49;7.80;;;4.37;;
2858;SDS011;1437;53.250;10.406;2022-08-25T02:44:16;6.77;;;4.80;;
2858;SDS011;1437;53.250;10.406;2022-08-25T02:46:46;5.87;;;4.43;;
2858;SDS011;1437;53.250;10.406;2022-08-25T02:49:14;6.00;;;4.47;;
2858;SDS011;1437;53.250;10.406;2022-08-25T02:51:41;7.17;;;4.73;;
2858;SDS011;1437;53.250;10.406;2022-08-25T02:54:08;7.37;;;4.77;;
2858;SDS011;1437;53.250;10.406;2022-08-25T02:56:35;8.20;;;5.10;;
2858;SDS011;1437;53.250;10.406;2022-08-25T02:59:02;4.90;;;4.40;;
2858;SDS011;1437;53.250;10.406;2022-08-25T03:01:30;6.13;;;4.60;;
2858;SDS011;1437;53.250;10.406;2022-08-25T03:03:57;5.50;;;4.17;;
2858;SDS011;1437;53.250;10.406;2022-08-25T03:06:25;6.20;;;4.40;;
2858;SDS011;1437;53.250;10.406;2022-08-25T03:08:53;8.23;;;5.30;;
2858;SDS011;1437;53.250;10.406;2022-08-25T03:11:20;7.10;;;4.97;;
2858;SDS011;1437;53.250;10.406;2022-08-25T03:13:49;5.00;;;4.30;;
2858;SDS011;1437;53.250;10.406;2022-08-25T03:16:19;21.73;;;16.80;;
2858;SDS011;1437;53.250;10.406;2022-08-25T03:18:47;5.03;;;4.47;;
2858;SDS011;1437;53.250;10.406;2022-08-25T03:21:14;6.50;;;4.90;;
2858;SDS011;1437;53.250;10.406;2022-08-25T03:23:42;6.67;;;5.37;;
2858;SDS011;1437;53.250;10.406;2022-08-25T03:26:10;7.07;;;5.20;;
2858;SDS011;1437;53.250;10.406;2022-08-25T03:28:59;6.80;;;4.43;;
2858;SDS011;1437;53.250;10.406;2022-08-25T03:31:29;6.83;;;5.00;;
2858;SDS011;1437;53.250;10.406;2022-08-25T03:33:56;8.40;;;5.17;;
2858;SDS011;1437;53.250;10.406;2022-08-25T03:36:24;6.30;;;4.47;;
2858;SDS011;1437;53.250;10.406;2022-08-25T03:38:52;5.83;;;5.10;;
2858;SDS011;1437;53.250;10.406;2022-08-25T03:41:21;7.40;;;4.80;;
2858;SDS011;1437;53.250;10.406;2022-08-25T03:43:48;9.20;;;4.60;;
2858;SDS011;1437;53.250;10.406;2022-08-25T03:46:16;7.30;;;4.63;;
2858;SDS011;1437;53.250;10.406;2022-08-25T03:48:45;5.20;;;4.60;;
2858;SDS011;1437;53.250;10.406;2022-08-25T03:51:17;9.00;;;5.30;;
2858;SDS011;1437;53.250;10.406;2022-08-25T03:53:46;6.37;;;5.60;;
2858;SDS011;1437;53.250;10.406;2022-08-25T03:56:14;7.83;;;5.50;;
2858;SDS011;1437;53.250;10.406;2022-08-25T03:58:41;9.70;;;5.77;;
2858;SDS011;1437;53.250;10.406;2022-08-25T04:01:08;7.83;;;5.50;;
2858;SDS011;1437;53.250;10.406;2022-08-25T04:03:35;6.27;;;4.83;;
2858;SDS011;1437;53.250;10.406;2022-08-25T04:06:03;8.27;;;5.73;;
2858;SDS011;1437;53.250;10.406;2022-08-25T04:08:30;11.67;;;5.43;;
2858;SDS011;1437;53.250;10.406;2022-08-25T04:10:57;7.87;;;6.10;;
2858;SDS011;1437;53.250;10.406;2022-08-25T04:13:25;5.63;;;5.10;;
2858;SDS011;1437;53.250;10.406;2022-08-25T04:15:53;6.87;;;6.17;;
2858;SDS011;1437;53.250;10.406;2022-08-25T04:18:20;9.90;;;5.70;;
2858;SDS011;1437;53.250;10.406;2022-08-25T04:20:48;10.40;;;6.33;;
2858;SDS011;1437;53.250;10.406;2022-08-25T04:23:15;8.43;;;5.77;;
2858;SDS011;1437;53.250;10.406;2022-08-25T04:25:42;8.20;;;5.20;;
2858;SDS011;1437;53.250;10.406;2022-08-25T04:28:09;7.97;;;4.73;;
2858;SDS011;1437;53.250;10.406;2022-08-25T04:30:40;8.20;;;5.47;;
2858;SDS011;1437;53.250;10.406;2022-08-25T04:33:10;7.53;;;5.90;;
2858;SDS011;1437;53.250;10.406;2022-08-25T04:35:38;10.83;;;5.57;;
2858;SDS011;1437;53.250;10.406;2022-08-25T04:38:05;10.57;;;6.53;;
2858;SDS011;1437;53.250;10.406;2022-08-25T04:40:34;11.37;;;6.13;;
2858;SDS011;1437;53.250;10.406;2022-08-25T04:43:02;7.43;;;6.53;;
2858;SDS011;1437;53.250;10.406;2022-08-25T04:45:29;9.53;;;6.17;;
2858;SDS011;1437;53.250;10.406;2022-08-25T04:47:57;7.70;;;5.60;;
2858;SDS011;1437;53.250;10.406;2022-08-25T04:50:25;7.17;;;6.20;;
2858;SDS011;1437;53.250;10.406;2022-08-25T04:52:53;15.03;;;6.80;;
2858;SDS011;1437;53.250;10.406;2022-08-25T04:55:20;12.00;;;5.73;;
2858;SDS011;1437;53.250;10.406;2022-08-25T04:57:47;8.67;;;6.73;;
2858;SDS011;1437;53.250;10.406;2022-08-25T05:00:15;8.47;;;6.13;;
2858;SDS011;1437;53.250;10.406;2022-08-25T05:02:43;9.80;;;6.43;;
2858;SDS011;1437;53.250;10.406;2022-08-25T05:05:11;11.90;;;6.50;;
2858;SDS011;1437;53.250;10.406;2022-08-25T05:07:38;8.30;;;6.23;;
2858;SDS011;1437;53.250;10.406;2022-08-25T05:10:05;10.77;;;8.20;;
2858;SDS011;1437;53.250;10.406;2022-08-25T05:12:33;7.87;;;6.90;;
2858;SDS011;1437;53.250;10.406;2022-08-25T05:15:00;12.00;;;7.33;;
2858;SDS011;1437;53.250;10.406;2022-08-25T05:17:51;9.97;;;6.97;;
2858;SDS011;1437;53.250;10.406;2022-08-25T05:20:20;12.50;;;7.57;;
2858;SDS011;1437;53.250;10.406;2022-08-25T05:22:49;10.80;;;7.13;;
2858;SDS011;1437;53.250;10.406;2022-08-25T05:25:16;11.10;;;8.00;;
2858;SDS011;1437;53.250;10.406;2022-08-25T05:27:44;11.43;;;9.43;;
2858;SDS011;1437;53.250;10.406;2022-08-25T05:30:11;11.03;;;7.90;;
2858;SDS011;1437;53.250;10.406;2022-08-25T05:32:38;11.90;;;8.87;;
2858;SDS011;1437;53.250;10.406;2022-08-25T05:35:05;9.77;;;8.17;;
2858;SDS011;1437;53.250;10.406;2022-08-25T05:37:34;12.57;;;8.53;;
2858;SDS011;1437;53.250;10.406;2022-08-25T05:40:02;10.27;;;8.13;;
2858;SDS011;1437;53.250;10.406;2022-08-25T05:42:29;9.80;;;8.00;;
2858;SDS011;1437;53.250;10.406;2022-08-25T05:44:56;10.93;;;8.53;;
2858;SDS011;1437;53.250;10.406;2022-08-25T05:47:23;10.93;;;8.83;;
2858;SDS011;1437;53.250;10.406;2022-08-25T05:49:50;10.23;;;9.13;;
2858;SDS011;1437;53.250;10.406;2022-08-25T05:52:17;11.10;;;7.93;;
2858;SDS011;1437;53.250;10.406;2022-08-25T05:54:46;11.90;;;9.20;;
2858;SDS011;1437;53.250;10.406;2022-08-25T05:57:14;14.97;;;9.17;;
2858;SDS011;1437;53.250;10.406;2022-08-25T05:59:42;11.03;;;7.73;;
2858;SDS011;1437;53.250;10.406;2022-08-25T06:02:09;10.50;;;8.87;;
2858;SDS011;1437;53.250;10.406;2022-08-25T06:04:54;10.40;;;8.37;;
2858;SDS011;1437;53.250;10.406;2022-08-25T06:07:22;10.83;;;7.63;;
2858;SDS011;1437;53.250;10.406;2022-08-25T06:09:50;11.03;;;8.80;;
2858;SDS011;1437;53.250;10.406;2022-08-25T06:12:17;11.47;;;8.90;;
2858;SDS011;1437;53.250;10.406;2022-08-25T06:14:45;11.10;;;8.20;;
2858;SDS011;1437;53.250;10.406;2022-08-25T06:17:13;12.67;;;8.80;;
2858;SDS011;1437;53.250;10.406;2022-08-25T06:19:43;14.90;;;8.57;;
2858;SDS011;1437;53.250;10.406;2022-08-25T06:22:10;10.07;;;8.07;;
2858;SDS011;1437;53.250;10.406;2022-08-25T06:24:37;8.80;;;7.40;;
2858;SDS011;1437;53.250;10.406;2022-08-25T06:27:06;8.50;;;7.60;;
2858;SDS011;1437;53.250;10.406;2022-08-25T06:29:33;10.30;;;8.43;;
2858;SDS011;1437;53.250;10.406;2022-08-25T06:32:02;10.20;;;7.00;;
2858;SDS011;1437;53.250;10.406;2022-08-25T06:34:29;11.37;;;7.63;;
2858;SDS011;1437;53.250;10.406;2022-08-25T06:36:57;9.03;;;7.57;;
2858;SDS011;1437;53.250;10.406;2022-08-25T06:39:25;11.30;;;7.60;;
2858;SDS011;1437;53.250;10.406;2022-08-25T06:41:53;10.63;;;7.73;;
2858;SDS011;1437;53.250;10.406;2022-08-25T06:44:24;9.00;;;7.93;;
2858;SDS011;1437;53.250;10.406;2022-08-25T06:46:52;11.17;;;8.27;;
2858;SDS011;1437;53.250;10.406;2022-08-25T06:49:22;13.03;;;9.53;;
2858;SDS011;1437;53.250;10.406;2022-08-25T06:51:52;11.67;;;7.90;;
2858;SDS011;1437;53.250;10.406;2022-08-25T06:54:19;9.23;;;7.17;;
2858;SDS011;1437;53.250;10.406;2022-08-25T06:56:46;9.63;;;7.83;;
2858;SDS011;1437;53.250;10.406;2022-08-25T06:59:14;9.83;;;8.23;;
2858;SDS011;1437;53.250;10.406;2022-08-25T07:01:43;12.50;;;7.50;;
2858;SDS011;1437;53.250;10.406;2022-08-25T07:04:10;9.70;;;7.90;;
2858;SDS011;1437;53.250;10.406;2022-08-25T07:06:39;10.73;;;8.47;;
2858;SDS011;1437;53.250;10.406;2022-08-25T07:09:10;8.33;;;7.53;;
2858;SDS011;1437;53.250;10.406;2022-08-25T07:11:38;9.20;;;7.93;;
2858;SDS011;1437;53.250;10.406;2022-08-25T07:14:06;9.40;;;8.37;;
2858;SDS011;1437;53.250;10.406;2022-08-25T07:16:35;8.50;;;7.30;;
2858;SDS011;1437;53.250;10.406;2022-08-25T07:19:03;12.03;;;8.80;;
2858;SDS011;1437;53.250;10.406;2022-08-25T07:21:32;15.20;;;11.63;;
2858;SDS011;1437;53.250;10.406;2022-08-25T07:24:00;12.20;;;9.33;;
2858;SDS011;1437;53.250;10.406;2022-08-25T07:26:31;13.60;;;8.90;;
2858;SDS011;1437;53.250;10.406;2022-08-25T07:29:00;10.27;;;8.97;;
2858;SDS011;1437;53.250;10.406;2022-08-25T07:31:30;11.97;;;8.57;;
2858;SDS011;1437;53.250;10.406;2022-08-25T07:34:02;15.33;;;8.60;;
2858;SDS011;1437;53.250;10.406;2022-08-25T07:36:48;14.87;;;10.87;;
2858;SDS011;1437;53.250;10.406;2022-08-25T07:39:15;20.03;;;16.67;;
2858;SDS011;1437;53.250;10.406;2022-08-25T07:41:42;14.23;;;12.73;;
2858;SDS011;1437;53.250;10.406;2022-08-25T07:44:10;13.20;;;10.33;;
2858;SDS011;1437;53.250;10.406;2022-08-25T07:46:38;13.33;;;9.77;;
2858;SDS011;1437;53.250;10.406;2022-08-25T07:49:05;13.37;;;10.30;;
2858;SDS011;1437;53.250;10.406;2022-08-25T07:51:33;11.87;;;9.30;;
2858;SDS011;1437;53.250;10.406;2022-08-25T07:54:01;13.03;;;9.70;;
2858;SDS011;1437;53.250;10.406;2022-08-25T07:56:28;13.90;;;11.00;;
2858;SDS011;1437;53.250;10.406;2022-08-25T07:58:55;13.40;;;10.17;;
2858;SDS011;1437;53.250;10.406;2022-08-25T08:01:26;11.70;;;9.97;;
2858;SDS011;1437;53.250;10.406;2022-08-25T08:03:53;12.70;;;9.40;;
2858;SDS011;1437;53.250;10.406;2022-08-25T08:06:21;10.20;;;8.53;;
2858;SDS011;1437;53.250;10.406;2022-08-25T08:08:50;11.80;;;8.67;;
2858;SDS011;1437;53.250;10.406;2022-08-25T08:11:19;15.43;;;9.20;;
2858;SDS011;1437;53.250;10.406;2022-08-25T08:13:48;16.67;;;10.00;;
2858;SDS011;1437;53.250;10.406;2022-08-25T08:16:16;13.80;;;9.80;;
2858;SDS011;1437;53.250;10.406;2022-08-25T08:18:44;12.80;;;10.50;;
2858;SDS011;1437;53.250;10.406;2022-08-25T08:21:12;13.27;;;9.83;;
2858;SDS011;1437;53.250;10.406;2022-08-25T08:23:40;11.40;;;9.70;;
2858;SDS011;1437;53.250;10.406;2022-08-25T08:26:09;12.17;;;10.33;;
2858;SDS011;1437;53.250;10.406;2022-08-25T08:28:40;29.57;;;22.57;;
2858;SDS011;1437;53.250;10.406;2022-08-25T08:31:09;24.57;;;20.23;;
2858;SDS011;1437;53.250;10.406;2022-08-25T08:33:38;13.67;;;11.33;;
2858;SDS011;1437;53.250;10.406;2022-08-25T08:36:08;15.40;;;11.03;;
2858;SDS011;1437;53.250;10.406;2022-08-25T08:38:40;13.03;;;9.80;;
2858;SDS011;1437;53.250;10.406;2022-08-25T08:41:16;16.27;;;10.40;;
2858;SDS011;1437;53.250;10.406;2022-08-25T08:44:07;12.03;;;10.53;;
2858;SDS011;1437;53.250;10.406;2022-08-25T08:46:52;15.80;;;9.80;;
2858;SDS011;1437;53.250;10.406;2022-08-25T08:49:24;14.40;;;9.50;;
2858;SDS011;1437;53.250;10.406;2022-08-25T08:51:56;12.30;;;9.60;;
2858;SDS011;1437;53.250;10.406;2022-08-25T08:54:30;11.20;;;10.00;;
2858;SDS011;1437;53.250;10.406;2022-08-25T08:58:54;15.23;;;10.53;;
2858;SDS011;1437;53.250;10.406;2022-08-25T09:00:23;15.13;;;9.43;;
2858;SDS011;1437;53.250;10.406;2022-08-25T09:02:58;13.97;;;11.07;;
2858;SDS011;1437;53.250;10.406;2022-08-25T09:05:34;11.37;;;10.17;;
2858;SDS011;1437;53.250;10.406;2022-08-25T09:08:11;13.93;;;10.07;;
2858;SDS011;1437;53.250;10.406;2022-08-25T09:10:47;13.50;;;10.50;;
2858;SDS011;1437;53.250;10.406;2022-08-25T09:13:25;11.57;;;9.20;;
2858;SDS011;1437;53.250;10.406;2022-08-25T09:15:57;13.73;;;10.63;;
2858;SDS011;1437;53.250;10.406;2022-08-25T09:18:50;14.40;;;8.90;;
2858;SDS011;1437;53.250;10.406;2022-08-25T09:21:22;12.43;;;8.63;;
2858;SDS011;1437;53.250;10.406;2022-08-25T09:23:58;10.17;;;8.50;;
2858;SDS011;1437;53.250;10.406;2022-08-25T09:26:36;14.57;;;9.13;;
2858;SDS011;1437;53.250;10.406;2022-08-25T09:29:12;12.73;;;8.07;;
2858;SDS011;1437;53.250;10.406;2022-08-25T09:31:45;13.40;;;8.13;;
2858;SDS011;1437;53.250;10.406;2022-08-25T09:34:15;11.33;;;8.50;;
2858;SDS011;1437;53.250;10.406;2022-08-25T09:36:44;14.10;;;10.90;;
2858;SDS011;1437;53.250;10.406;2022-08-25T09:39:15;14.13;;;8.17;;
2858;SDS011;1437;53.250;10.406;2022-08-25T09:41:46;11.00;;;6.93;;
2858;SDS011;1437;53.250;10.406;2022-08-25T09:44:16;9.80;;;7.97;;
2858;SDS011;1437;53.250;10.406;2022-08-25T09:46:53;12.37;;;7.67;;
2858;SDS011;1437;53.250;10.406;2022-08-25T09:49:27;16.73;;;12.43;;
2858;SDS011;1437;53.250;10.406;2022-08-25T09:57:49;14.30;;;9.30;;
2858;SDS011;1437;53.250;10.406;2022-08-25T10:00:22;11.37;;;8.33;;
2858;SDS011;1437;53.250;10.406;2022-08-25T10:03:05;9.20;;;7.40;;
2858;SDS011;1437;53.250;10.406;2022-08-25T10:05:33;8.93;;;6.67;;
2858;SDS011;1437;53.250;10.406;2022-08-25T10:08:02;13.37;;;8.20;;
2858;SDS011;1437;53.250;10.406;2022-08-25T10:10:30;7.27;;;6.37;;
2858;SDS011;1437;53.250;10.406;2022-08-25T10:12:58;9.07;;;6.33;;
2858;SDS011;1437;53.250;10.406;2022-08-25T10:15:28;6.60;;;5.80;;
2858;SDS011;1437;53.250;10.406;2022-08-25T10:17:56;15.20;;;6.17;;
2858;SDS011;1437;53.250;10.406;2022-08-25T10:20:44;9.57;;;6.97;;
2858;SDS011;1437;53.250;10.406;2022-08-25T10:23:27;8.93;;;6.33;;
2858;SDS011;1437;53.250;10.406;2022-08-25T10:25:55;9.03;;;7.57;;
2858;SDS011;1437;53.250;10.406;2022-08-25T10:28:29;9.90;;;6.67;;
2858;SDS011;1437;53.250;10.406;2022-08-25T10:31:00;9.83;;;5.93;;
2858;SDS011;1437;53.250;10.406;2022-08-25T10:33:45;9.30;;;5.30;;
2858;SDS011;1437;53.250;10.406;2022-08-25T10:36:26;7.20;;;5.30;;
2858;SDS011;1437;53.250;10.406;2022-08-25T10:38:59;7.97;;;5.60;;
2858;SDS011;1437;53.250;10.406;2022-08-25T10:41:33;7.50;;;6.00;;
2858;SDS011;1437;53.250;10.406;2022-08-25T10:44:08;8.10;;;6.20;;
2858;SDS011;1437;53.250;10.406;2022-08-25T10:46:55;8.60;;;5.60;;
2858;SDS011;1437;53.250;10.406;2022-08-25T10:49:41;9.63;;;5.43;;
2858;SDS011;1437;53.250;10.406;2022-08-25T10:52:13;7.97;;;4.97;;
2858;SDS011;1437;53.250;10.406;2022-08-25T10:54:44;6.40;;;4.50;;
2858;SDS011;1437;53.250;10.406;2022-08-25T10:57:17;5.60;;;3.40;;
2858;SDS011;1437;53.250;10.406;2022-08-25T10:59:55;8.20;;;5.23;;
2858;SDS011;1437;53.250;10.406;2022-08-25T11:02:31;7.27;;;5.27;;
2858;SDS011;1437;53.250;10.406;2022-08-25T11:05:06;8.00;;;4.30;;
2858;SDS011;1437;53.250;10.406;2022-08-25T11:07:37;9.57;;;5.90;;
2858;SDS011;1437;53.250;10.406;2022-08-25T11:10:10;6.67;;;4.47;;
2858;SDS011;1437;53.250;10.406;2022-08-25T11:12:39;10.03;;;6.37;;
2858;SDS011;1437;53.250;10.406;2022-08-25T11:15:12;6.50;;;4.77;;
2858;SDS011;1437;53.250;10.406;2022-08-25T11:17:47;6.47;;;4.50;;
2858;SDS011;1437;53.250;10.406;2022-08-25T11:20:20;7.17;;;4.43;;
2858;SDS011;1437;53.250;10.406;2022-08-25T11:22:53;7.77;;;4.20;;
2858;SDS011;1437;53.250;10.406;2022-08-25T11:25:25;7.17;;;4.83;;
2858;SDS011;1437;53.250;10.406;2022-08-25T11:28:02;9.70;;;4.70;;
2858;SDS011;1437;53.250;10.406;2022-08-25T11:30:33;6.63;;;4.37;;
2858;SDS011;1437;53.250;10.406;2022-08-25T11:33:01;8.00;;;4.50;;
2858;SDS011;1437;53.250;10.406;2022-08-25T11:35:30;6.13;;;4.10;;
2858;SDS011;1437;53.250;10.406;2022-08-25T11:38:05;5.60;;;3.70;;
2858;SDS011;1437;53.250;10.406;2022-08-25T11:40:40;5.63;;;3.80;;
2858;SDS011;1437;53.250;10.406;2022-08-25T11:46:09;6.07;;;4.00;;
2858;SDS011;1437;53.250;10.406;2022-08-25T11:48:45;6.20;;;4.47;;
2858;SDS011;1437;53.250;10.406;2022-08-25T11:51:29;6.07;;;3.67;;
2858;SDS011;1437;53.250;10.406;2022-08-25T11:54:14;6.70;;;4.33;;
2858;SDS011;1437;53.250;10.406;2022-08-25T11:56:49;5.87;;;4.23;;
2858;SDS011;1437;53.250;10.406;2022-08-25T12:01:59;5.03;;;4.20;;
2858;SDS011;1437;53.250;10.406;2022-08-25T12:04:31;8.67;;;4.30;;
2858;SDS011;1437;53.250;10.406;2022-08-25T12:07:14;5.50;;;4.07;;
2858;SDS011;1437;53.250;10.406;2022-08-25T12:12:35;7.80;;;3.40;;
2858;SDS011;1437;53.250;10.406;2022-08-25T12:15:13;6.00;;;3.77;;
2858;SDS011;1437;53.250;10.406;2022-08-25T12:17:41;6.57;;;4.23;;
2858;SDS011;1437;53.250;10.406;2022-08-25T12:20:09;6.27;;;4.53;;
2858;SDS011;1437;53.250;10.406;2022-08-25T12:22:43;7.07;;;4.53;;
2858;SDS011;1437;53.250;10.406;2022-08-25T12:28:07;4.57;;;3.70;;
2858;SDS011;1437;53.250;10.406;2022-08-25T12:30:41;6.57;;;3.90;;
2858;SDS011;1437;53.250;10.406;2022-08-25T12:36:06;7.10;;;3.40;;
2858;SDS011;1437;53.250;10.406;2022-08-25T12:38:35;9.47;;;4.40;;
2858;SDS011;1437;53.250;10.406;2022-08-25T12:41:05;8.13;;;3.67;;
2858;SDS011;1437;53.250;10.406;2022-08-25T12:43:40;6.20;;;3.60;;
2858;SDS011;1437;53.250;10.406;2022-08-25T12:48:57;6.70;;;3.43;;
2858;SDS011;1437;53.250;10.406;2022-08-25T12:51:47;6.37;;;3.87;;
2858;SDS011;1437;53.250;10.406;2022-08-25T12:54:16;8.67;;;4.10;;
2858;SDS011;1437;53.250;10.406;2022-08-25T12:56:46;8.83;;;4.03;;
2858;SDS011;1437;53.250;10.406;2022-08-25T12:59:17;6.03;;;3.13;;
2858;SDS011;1437;53.250;10.406;2022-08-25T13:07:27;6.20;;;3.93;;
2858;SDS011;1437;53.250;10.406;2022-08-25T13:10:24;6.63;;;4.40;;
2858;SDS011;1437;53.250;10.406;2022-08-25T13:12:55;7.40;;;4.27;;
2858;SDS011;1437;53.250;10.406;2022-08-25T13:15:39;8.10;;;4.70;;
2858;SDS011;1437;53.250;10.406;2022-08-25T13:18:24;7.60;;;4.50;;
2858;SDS011;1437;53.250;10.406;2022-08-25T13:21:07;6.60;;;4.30;;
2858;SDS011;1437;53.250;10.406;2022-08-25T13:23:40;12.83;;;7.17;;
2858;SDS011;1437;53.250;10.406;2022-08-25T13:26:08;5.97;;;4.57;;
2858;SDS011;1437;53.250;10.406;2022-08-25T13:28:57;9.70;;;4.30;;
2858;SDS011;1437;53.250;10.406;2022-08-25T13:31:30;6.47;;;4.53;;
2858;SDS011;1437;53.250;10.406;2022-08-25T13:34:01;7.57;;;4.87;;
2858;SDS011;1437;53.250;10.406;2022-08-25T13:36:30;8.43;;;4.90;;
2858;SDS011;1437;53.250;10.406;2022-08-25T13:39:20;9.73;;;4.10;;
2858;SDS011;1437;53.250;10.406;2022-08-25T13:41:49;7.10;;;3.83;;
2858;SDS011;1437;53.250;10.406;2022-08-25T13:44:17;9.53;;;3.60;;
2858;SDS011;1437;53.250;10.406;2022-08-25T13:46:46;6.63;;;3.50;;
2858;SDS011;1437;53.250;10.406;2022-08-25T13:49:30;8.23;;;4.10;;
2858;SDS011;1437;53.250;10.406;2022-08-25T13:51:59;10.17;;;3.60;;
2858;SDS011;1437;53.250;10.406;2022-08-25T13:54:27;8.37;;;3.30;;
2858;SDS011;1437;53.250;10.406;2022-08-25T13:57:02;9.70;;;4.03;;
2858;SDS011;1437;53.250;10.406;2022-08-25T13:59:33;12.17;;;7.17;;
2858;SDS011;1437;53.250;10.406;2022-08-25T14:02:05;9.37;;;3.80;;
2858;SDS011;1437;53.250;10.406;2022-08-25T14:04:43;10.63;;;4.30;;
2858;SDS011;1437;53.250;10.406;2022-08-25T14:07:26;9.47;;;4.47;;
2858;SDS011;1437;53.250;10.406;2022-08-25T14:09:54;10.30;;;4.07;;
2858;SDS011;1437;53.250;10.406;2022-08-25T14:12:26;9.57;;;3.57;;
2858;SDS011;1437;53.250;10.406;2022-08-25T14:15:03;7.57;;;4.37;;
2858;SDS011;1437;53.250;10.406;2022-08-25T14:17:33;5.97;;;3.67;;
2858;SDS011;1437;53.250;10.406;2022-08-25T14:20:00;7.83;;;4.87;;
2858;SDS011;1437;53.250;10.406;2022-08-25T14:22:38;11.20;;;3.90;;
2858;SDS011;1437;53.250;10.406;2022-08-25T14:25:12;6.87;;;3.80;;
2858;SDS011;1437;53.250;10.406;2022-08-25T14:27:41;8.33;;;3.70;;
2858;SDS011;1437;53.250;10.406;2022-08-25T14:30:09;10.87;;;4.23;;
2858;SDS011;1437;53.250;10.406;2022-08-25T14:32:37;10.00;;;4.40;;
2858;SDS011;1437;53.250;10.406;2022-08-25T14:35:06;7.90;;;3.00;;
2858;SDS011;1437;53.250;10.406;2022-08-25T14:37:34;8.10;;;3.93;;
2858;SDS011;1437;53.250;10.406;2022-08-25T14:40:02;12.80;;;4.67;;
2858;SDS011;1437;53.250;10.406;2022-08-25T14:42:30;8.03;;;4.33;;
2858;SDS011;1437;53.250;10.406;2022-08-25T14:44:58;7.63;;;4.03;;
2858;SDS011;1437;53.250;10.406;2022-08-25T14:47:25;10.80;;;4.57;;
2858;SDS011;1437;53.250;10.406;2022-08-25T14:49:53;8.47;;;4.93;;
2858;SDS011;1437;53.250;10.406;2022-08-25T14:52:23;9.60;;;4.97;;
2858;SDS011;1437;53.250;10.406;2022-08-25T14:54:52;7.53;;;3.90;;
2858;SDS011;1437;53.250;10.406;2022-08-25T14:57:22;9.83;;;3.87;;
2858;SDS011;1437;53.250;10.406;2022-08-25T14:59:50;7.90;;;3.80;;
2858;SDS011;1437;53.250;10.406;2022-08-25T15:02:18;5.13;;;3.20;;
2858;SDS011;1437;53.250;10.406;2022-08-25T15:04:56;6.00;;;4.10;;
2858;SDS011;1437;53.250;10.406;2022-08-25T15:07:57;7.87;;;4.10;;
2858;SDS011;1437;53.250;10.406;2022-08-25T15:10:42;12.43;;;4.53;;
2858;SDS011;1437;53.250;10.406;2022-08-25T15:13:13;6.13;;;3.33;;
2858;SDS011;1437;53.250;10.406;2022-08-25T15:15:42;6.50;;;3.83;;
2858;SDS011;1437;53.250;10.406;2022-08-25T15:18:10;7.50;;;3.67;;
2858;SDS011;1437;53.250;10.406;2022-08-25T15:20:39;7.40;;;4.07;;
2858;SDS011;1437;53.250;10.406;2022-08-25T15:23:06;11.00;;;4.50;;
2858;SDS011;1437;53.250;10.406;2022-08-25T15:25:35;7.70;;;4.23;;
2858;SDS011;1437;53.250;10.406;2022-08-25T15:28:09;7.20;;;4.50;;
2858;SDS011;1437;53.250;10.406;2022-08-25T15:30:39;9.37;;;4.73;;
2858;SDS011;1437;53.250;10.406;2022-08-25T15:33:09;7.43;;;3.63;;
2858;SDS011;1437;53.250;10.406;2022-08-25T15:35:41;6.90;;;4.50;;
2858;SDS011;1437;53.250;10.406;2022-08-25T15:38:08;11.93;;;4.43;;
2858;SDS011;1437;53.250;10.406;2022-08-25T15:40:36;6.10;;;3.87;;
2858;SDS011;1437;53.250;10.406;2022-08-25T15:43:08;7.13;;;4.67;;
2858;SDS011;1437;53.250;10.406;2022-08-25T15:45:43;12.30;;;4.50;;